<?xml version="1.0" encoding="UTF-8" standalone="no" ?>
<gpx xmlns="http://www.topografix.com/GPX/1/1" xmlns:xsi="http://www.w3.org/2001/XMLSchema-instance" xsi:schemaLocation="http://www.topografix.com/GPX/1/1 http://www.topografix.com/GPX/1/1/gpx.xsd" version="1.1" creator="VisuGPX - https://www.visugpx.com">
  <metadata>
    <name>Boissy Courcelles Montgeroult</name>
    <desc><![CDATA[Boissy Courcelles Montgeroult
]]></desc>
  </metadata>
  <trk>
    <name><![CDATA[9525957-Boissy]]></name>
    <trkseg>
      <trkpt lat="49.07591" lon="2.02543">
        <ele>41</ele>
        <time>2019-01-31T23:30:22Z</time>
      </trkpt>
      <trkpt lat="49.07568" lon="2.02689">
        <ele>41</ele>
        <time>2019-01-31T23:31:22Z</time>
      </trkpt>
      <trkpt lat="49.07528" lon="2.02874">
        <ele>41</ele>
        <time>2019-01-31T23:32:22Z</time>
      </trkpt>
      <trkpt lat="49.07524" lon="2.02896">
        <ele>41</ele>
        <time>2019-01-31T23:33:22Z</time>
      </trkpt>
      <trkpt lat="49.07509" lon="2.02909">
        <ele>41</ele>
        <time>2019-01-31T23:34:22Z</time>
      </trkpt>
      <trkpt lat="49.0747" lon="2.029">
        <ele>41</ele>
        <time>2019-01-31T23:35:22Z</time>
      </trkpt>
      <trkpt lat="49.07392" lon="2.02943">
        <ele>42</ele>
        <time>2019-01-31T23:36:22Z</time>
      </trkpt>
      <trkpt lat="49.07363" lon="2.02839">
        <ele>46</ele>
        <time>2019-01-31T23:37:22Z</time>
      </trkpt>
      <trkpt lat="49.07326" lon="2.02703">
        <ele>58</ele>
        <time>2019-01-31T23:38:22Z</time>
      </trkpt>
      <trkpt lat="49.07291" lon="2.0265">
        <ele>63</ele>
        <time>2019-01-31T23:39:22Z</time>
      </trkpt>
      <trkpt lat="49.07296" lon="2.02456">
        <ele>74</ele>
        <time>2019-01-31T23:40:22Z</time>
      </trkpt>
      <trkpt lat="49.07276" lon="2.02375">
        <ele>77</ele>
        <time>2019-01-31T23:41:22Z</time>
      </trkpt>
      <trkpt lat="49.07218" lon="2.02237">
        <ele>80</ele>
        <time>2019-01-31T23:42:22Z</time>
      </trkpt>
      <trkpt lat="49.07184" lon="2.02129">
        <ele>85</ele>
        <time>2019-01-31T23:43:22Z</time>
      </trkpt>
      <trkpt lat="49.0715" lon="2.01905">
        <ele>91</ele>
        <time>2019-01-31T23:44:22Z</time>
      </trkpt>
      <trkpt lat="49.07094" lon="2.01732">
        <ele>99</ele>
        <time>2019-01-31T23:45:22Z</time>
      </trkpt>
      <trkpt lat="49.07079" lon="2.01693">
        <ele>102</ele>
        <time>2019-01-31T23:46:22Z</time>
      </trkpt>
      <trkpt lat="49.07047" lon="2.01658">
        <ele>105</ele>
        <time>2019-01-31T23:47:22Z</time>
      </trkpt>
      <trkpt lat="49.07021" lon="2.01635">
        <ele>107</ele>
        <time>2019-01-31T23:48:22Z</time>
      </trkpt>
      <trkpt lat="49.06994" lon="2.01559">
        <ele>112</ele>
        <time>2019-01-31T23:49:22Z</time>
      </trkpt>
      <trkpt lat="49.06953" lon="2.01375">
        <ele>112</ele>
        <time>2019-01-31T23:50:22Z</time>
      </trkpt>
      <trkpt lat="49.06978" lon="2.01292">
        <ele>106</ele>
        <time>2019-01-31T23:51:22Z</time>
      </trkpt>
      <trkpt lat="49.07025" lon="2.01283">
        <ele>105</ele>
        <time>2019-01-31T23:52:22Z</time>
      </trkpt>
      <trkpt lat="49.07112" lon="2.01171">
        <ele>92</ele>
        <time>2019-01-31T23:53:22Z</time>
      </trkpt>
      <trkpt lat="49.07133" lon="2.01143">
        <ele>87</ele>
        <time>2019-01-31T23:54:22Z</time>
      </trkpt>
      <trkpt lat="49.07045" lon="2.01096">
        <ele>76</ele>
        <time>2019-01-31T23:55:22Z</time>
      </trkpt>
      <trkpt lat="49.07066" lon="2.01008">
        <ele>67</ele>
        <time>2019-01-31T23:56:22Z</time>
      </trkpt>
      <trkpt lat="49.07123" lon="2.00849">
        <ele>70</ele>
        <time>2019-01-31T23:57:22Z</time>
      </trkpt>
      <trkpt lat="49.07215" lon="2.00529">
        <ele>78</ele>
        <time>2019-01-31T23:58:22Z</time>
      </trkpt>
      <trkpt lat="49.07496" lon="1.9966">
        <ele>78</ele>
        <time>2019-01-31T23:59:22Z</time>
      </trkpt>
      <trkpt lat="49.07622" lon="1.99263">
        <ele>96</ele>
        <time>2019-02-01T00:00:22Z</time>
      </trkpt>
      <trkpt lat="49.07715" lon="1.99072">
        <ele>98</ele>
        <time>2019-02-01T00:01:22Z</time>
      </trkpt>
      <trkpt lat="49.07747" lon="1.98914">
        <ele>95</ele>
        <time>2019-02-01T00:02:22Z</time>
      </trkpt>
      <trkpt lat="49.07799" lon="1.99062">
        <ele>90</ele>
        <time>2019-02-01T00:03:22Z</time>
      </trkpt>
      <trkpt lat="49.0785" lon="1.99218">
        <ele>83</ele>
        <time>2019-02-01T00:04:22Z</time>
      </trkpt>
      <trkpt lat="49.07899" lon="1.99371">
        <ele>82</ele>
        <time>2019-02-01T00:05:22Z</time>
      </trkpt>
      <trkpt lat="49.07954" lon="1.9954">
        <ele>77</ele>
        <time>2019-02-01T00:06:22Z</time>
      </trkpt>
      <trkpt lat="49.07978" lon="1.99686">
        <ele>73</ele>
        <time>2019-02-01T00:07:22Z</time>
      </trkpt>
      <trkpt lat="49.07971" lon="1.9974">
        <ele>72</ele>
        <time>2019-02-01T00:08:22Z</time>
      </trkpt>
      <trkpt lat="49.07919" lon="1.99884">
        <ele>73</ele>
        <time>2019-02-01T00:09:22Z</time>
      </trkpt>
      <trkpt lat="49.07884" lon="2.00017">
        <ele>63</ele>
        <time>2019-02-01T00:10:22Z</time>
      </trkpt>
      <trkpt lat="49.07853" lon="2.001">
        <ele>58</ele>
        <time>2019-02-01T00:11:22Z</time>
      </trkpt>
      <trkpt lat="49.0778" lon="2.00186">
        <ele>53</ele>
        <time>2019-02-01T00:12:22Z</time>
      </trkpt>
      <trkpt lat="49.07807" lon="2.00338">
        <ele>46</ele>
        <time>2019-02-01T00:13:22Z</time>
      </trkpt>
      <trkpt lat="49.07913" lon="2.00285">
        <ele>45</ele>
        <time>2019-02-01T00:14:22Z</time>
      </trkpt>
      <trkpt lat="49.08036" lon="2.0039">
        <ele>43</ele>
        <time>2019-02-01T00:15:22Z</time>
      </trkpt>
      <trkpt lat="49.08086" lon="2.00426">
        <ele>45</ele>
        <time>2019-02-01T00:16:22Z</time>
      </trkpt>
      <trkpt lat="49.08117" lon="2.0062">
        <ele>46</ele>
        <time>2019-02-01T00:17:22Z</time>
      </trkpt>
      <trkpt lat="49.08121" lon="2.00705">
        <ele>46</ele>
        <time>2019-02-01T00:18:22Z</time>
      </trkpt>
      <trkpt lat="49.08102" lon="2.00761">
        <ele>48</ele>
        <time>2019-02-01T00:19:22Z</time>
      </trkpt>
      <trkpt lat="49.08164" lon="2.00806">
        <ele>53</ele>
        <time>2019-02-01T00:20:22Z</time>
      </trkpt>
      <trkpt lat="49.08209" lon="2.0088">
        <ele>61</ele>
        <time>2019-02-01T00:21:22Z</time>
      </trkpt>
      <trkpt lat="49.08178" lon="2.00963">
        <ele>66</ele>
        <time>2019-02-01T00:22:22Z</time>
      </trkpt>
      <trkpt lat="49.08145" lon="2.01144">
        <ele>72</ele>
        <time>2019-02-01T00:23:22Z</time>
      </trkpt>
      <trkpt lat="49.08136" lon="2.01222">
        <ele>73</ele>
        <time>2019-02-01T00:24:22Z</time>
      </trkpt>
      <trkpt lat="49.08108" lon="2.01411">
        <ele>76</ele>
        <time>2019-02-01T00:25:22Z</time>
      </trkpt>
      <trkpt lat="49.08067" lon="2.01665">
        <ele>80</ele>
        <time>2019-02-01T00:26:22Z</time>
      </trkpt>
      <trkpt lat="49.0802" lon="2.01858">
        <ele>74</ele>
        <time>2019-02-01T00:27:22Z</time>
      </trkpt>
      <trkpt lat="49.08167" lon="2.01957">
        <ele>83</ele>
        <time>2019-02-01T00:28:22Z</time>
      </trkpt>
      <trkpt lat="49.08281" lon="2.02014">
        <ele>83</ele>
        <time>2019-02-01T00:29:22Z</time>
      </trkpt>
      <trkpt lat="49.08456" lon="2.0212">
        <ele>84</ele>
        <time>2019-02-01T00:30:22Z</time>
      </trkpt>
      <trkpt lat="49.084" lon="2.0219">
        <ele>82</ele>
        <time>2019-02-01T00:31:22Z</time>
      </trkpt>
      <trkpt lat="49.08358" lon="2.02283">
        <ele>80</ele>
        <time>2019-02-01T00:32:22Z</time>
      </trkpt>
      <trkpt lat="49.08343" lon="2.02382">
        <ele>78</ele>
        <time>2019-02-01T00:33:22Z</time>
      </trkpt>
      <trkpt lat="49.08352" lon="2.02469">
        <ele>76</ele>
        <time>2019-02-01T00:34:22Z</time>
      </trkpt>
      <trkpt lat="49.08268" lon="2.02721">
        <ele>70</ele>
        <time>2019-02-01T00:35:22Z</time>
      </trkpt>
      <trkpt lat="49.08194" lon="2.02785">
        <ele>72</ele>
        <time>2019-02-01T00:36:22Z</time>
      </trkpt>
      <trkpt lat="49.08126" lon="2.02911">
        <ele>76</ele>
        <time>2019-02-01T00:37:22Z</time>
      </trkpt>
      <trkpt lat="49.08081" lon="2.03095">
        <ele>75</ele>
        <time>2019-02-01T00:38:22Z</time>
      </trkpt>
      <trkpt lat="49.08053" lon="2.03192">
        <ele>76</ele>
        <time>2019-02-01T00:39:22Z</time>
      </trkpt>
      <trkpt lat="49.08" lon="2.03357">
        <ele>73</ele>
        <time>2019-02-01T00:40:22Z</time>
      </trkpt>
      <trkpt lat="49.07897" lon="2.03567">
        <ele>75</ele>
        <time>2019-02-01T00:41:22Z</time>
      </trkpt>
      <trkpt lat="49.07815" lon="2.03669">
        <ele>77</ele>
        <time>2019-02-01T00:42:22Z</time>
      </trkpt>
      <trkpt lat="49.07737" lon="2.03794">
        <ele>72</ele>
        <time>2019-02-01T00:43:22Z</time>
      </trkpt>
      <trkpt lat="49.07683" lon="2.03881">
        <ele>76</ele>
        <time>2019-02-01T00:44:22Z</time>
      </trkpt>
      <trkpt lat="49.07624" lon="2.03923">
        <ele>76</ele>
        <time>2019-02-01T00:45:22Z</time>
      </trkpt>
      <trkpt lat="49.07578" lon="2.04003">
        <ele>77</ele>
        <time>2019-02-01T00:46:22Z</time>
      </trkpt>
      <trkpt lat="49.07553" lon="2.03937">
        <ele>74</ele>
        <time>2019-02-01T00:47:22Z</time>
      </trkpt>
      <trkpt lat="49.07529" lon="2.03905">
        <ele>72</ele>
        <time>2019-02-01T00:48:22Z</time>
      </trkpt>
      <trkpt lat="49.07544" lon="2.03816">
        <ele>69</ele>
        <time>2019-02-01T00:49:22Z</time>
      </trkpt>
      <trkpt lat="49.07568" lon="2.03742">
        <ele>65</ele>
        <time>2019-02-01T00:50:22Z</time>
      </trkpt>
      <trkpt lat="49.07584" lon="2.03715">
        <ele>62</ele>
        <time>2019-02-01T00:51:22Z</time>
      </trkpt>
      <trkpt lat="49.07599" lon="2.03672">
        <ele>58</ele>
        <time>2019-02-01T00:52:22Z</time>
      </trkpt>
      <trkpt lat="49.07552" lon="2.03628">
        <ele>53</ele>
        <time>2019-02-01T00:53:22Z</time>
      </trkpt>
      <trkpt lat="49.07506" lon="2.0362">
        <ele>52</ele>
        <time>2019-02-01T00:54:22Z</time>
      </trkpt>
      <trkpt lat="49.074" lon="2.03618">
        <ele>53</ele>
        <time>2019-02-01T00:55:22Z</time>
      </trkpt>
      <trkpt lat="49.07295" lon="2.03481">
        <ele>50</ele>
        <time>2019-02-01T00:56:22Z</time>
      </trkpt>
      <trkpt lat="49.07259" lon="2.03434">
        <ele>51</ele>
        <time>2019-02-01T00:57:22Z</time>
      </trkpt>
      <trkpt lat="49.07225" lon="2.03344">
        <ele>49</ele>
        <time>2019-02-01T00:58:22Z</time>
      </trkpt>
      <trkpt lat="49.07209" lon="2.03307">
        <ele>49</ele>
        <time>2019-02-01T00:59:22Z</time>
      </trkpt>
      <trkpt lat="49.07178" lon="2.03245">
        <ele>47</ele>
        <time>2019-02-01T01:00:22Z</time>
      </trkpt>
      <trkpt lat="49.07086" lon="2.03155">
        <ele>45</ele>
        <time>2019-02-01T01:01:22Z</time>
      </trkpt>
      <trkpt lat="49.07046" lon="2.03154">
        <ele>44</ele>
        <time>2019-02-01T01:02:22Z</time>
      </trkpt>
      <trkpt lat="49.06998" lon="2.03182">
        <ele>42</ele>
        <time>2019-02-01T01:03:22Z</time>
      </trkpt>
      <trkpt lat="49.06954" lon="2.03171">
        <ele>42</ele>
        <time>2019-02-01T01:04:22Z</time>
      </trkpt>
      <trkpt lat="49.06887" lon="2.03135">
        <ele>40</ele>
        <time>2019-02-01T01:05:22Z</time>
      </trkpt>
      <trkpt lat="49.06809" lon="2.03094">
        <ele>43</ele>
        <time>2019-02-01T01:06:22Z</time>
      </trkpt>
      <trkpt lat="49.06804" lon="2.03076">
        <ele>44</ele>
        <time>2019-02-01T01:07:22Z</time>
      </trkpt>
      <trkpt lat="49.06828" lon="2.03022">
        <ele>45</ele>
        <time>2019-02-01T01:08:22Z</time>
      </trkpt>
      <trkpt lat="49.06846" lon="2.02979">
        <ele>46</ele>
        <time>2019-02-01T01:09:22Z</time>
      </trkpt>
      <trkpt lat="49.06882" lon="2.02922">
        <ele>46</ele>
        <time>2019-02-01T01:10:22Z</time>
      </trkpt>
      <trkpt lat="49.06926" lon="2.02867">
        <ele>44</ele>
        <time>2019-02-01T01:11:22Z</time>
      </trkpt>
      <trkpt lat="49.06957" lon="2.0286">
        <ele>43</ele>
        <time>2019-02-01T01:12:22Z</time>
      </trkpt>
      <trkpt lat="49.06969" lon="2.02852">
        <ele>42</ele>
        <time>2019-02-01T01:13:22Z</time>
      </trkpt>
      <trkpt lat="49.07013" lon="2.02806">
        <ele>43</ele>
        <time>2019-02-01T01:14:22Z</time>
      </trkpt>
      <trkpt lat="49.07048" lon="2.02776">
        <ele>44</ele>
        <time>2019-02-01T01:15:22Z</time>
      </trkpt>
      <trkpt lat="49.07123" lon="2.02781">
        <ele>43</ele>
        <time>2019-02-01T01:16:22Z</time>
      </trkpt>
      <trkpt lat="49.072" lon="2.02791">
        <ele>44</ele>
        <time>2019-02-01T01:17:22Z</time>
      </trkpt>
      <trkpt lat="49.07273" lon="2.02822">
        <ele>44</ele>
        <time>2019-02-01T01:18:22Z</time>
      </trkpt>
      <trkpt lat="49.07343" lon="2.02863">
        <ele>45</ele>
        <time>2019-02-01T01:19:22Z</time>
      </trkpt>
      <trkpt lat="49.07372" lon="2.02889">
        <ele>44</ele>
        <time>2019-02-01T01:20:22Z</time>
      </trkpt>
      <trkpt lat="49.07387" lon="2.02952">
        <ele>41</ele>
        <time>2019-02-01T01:21:22Z</time>
      </trkpt>
      <trkpt lat="49.07474" lon="2.02907">
        <ele>41</ele>
        <time>2019-02-01T01:22:22Z</time>
      </trkpt>
      <trkpt lat="49.0751" lon="2.02916">
        <ele>41</ele>
        <time>2019-02-01T01:23:22Z</time>
      </trkpt>
      <trkpt lat="49.07525" lon="2.02905">
        <ele>42</ele>
        <time>2019-02-01T01:24:22Z</time>
      </trkpt>
      <trkpt lat="49.07552" lon="2.02778">
        <ele>41</ele>
        <time>2019-02-01T01:25:22Z</time>
      </trkpt>
      <trkpt lat="49.07569" lon="2.027">
        <ele>41</ele>
        <time>2019-02-01T01:26:22Z</time>
      </trkpt>
      <trkpt lat="49.07591" lon="2.02537">
        <ele>41</ele>
        <time>2019-02-01T01:27:22Z</time>
      </trkpt>
    </trkseg>
  </trk>
</gpx>